Overview Statistics Trail Chart Weather Telemetry Raw packets
 

This is the latest recevied weather packets stored in our database for station/object OK2ILA-10. If no packets are shown the sender has not sent any weather packets the latest 10 day(s).

<< 8 9 10 11 12 13 14 >>
Time Temp. Humidity Pressure Rain* Wind** Luminosity Snow
1788610925 20.56° C 51% 1019 hPa - - - -
1788610329 20.56° C 51% 1019.3 hPa - - - -
1788610325 20.56° C 51% 1019.3 hPa - - - -
1788609729 21.11° C 50% 1019.2 hPa - - - -
1788609725 21.11° C 50% 1019.2 hPa - - - -
1788609128 21.11° C 49% 1019.1 hPa - - - -
1788609124 21.11° C 49% 1019.1 hPa - - - -
1788608528 21.67° C 49% 1019.1 hPa - - - -
1788608524 21.67° C 49% 1019.1 hPa - - - -
1788607928 21.11° C 49% 1019.2 hPa - - - -
1788607924 21.11° C 49% 1019.2 hPa - - - -
1788607324 21.11° C 49% 1019.2 hPa - - - -
1788606728 20° C 51% 1019.3 hPa - - - -
1788606724 20° C 51% 1019.3 hPa - - - -
1788606127 21.67° C 48% 1019.2 hPa - - - -
1788606123 21.67° C 48% 1019.2 hPa - - - -
1788605527 21.67° C 48% 1019.2 hPa - - - -
1788605523 21.67° C 48% 1019.2 hPa - - - -
1788604927 21.67° C 49% 1019.1 hPa - - - -
1788604923 21.67° C 49% 1019.1 hPa - - - -
1788604327 21.11° C 51% 1019.3 hPa - - - -
1788604323 21.11° C 51% 1019.3 hPa - - - -
1788603726 20° C 53% 1019.4 hPa - - - -
1788603722 20° C 53% 1019.4 hPa - - - -
1788603126 20° C 53% 1019.4 hPa - - - -

* Rain since midnight (hover to see other rain measurements)
** Current wind speed in m/s (hover to see current wind gust speed)